SWR9Q LSZH-EDDL
Flight info
| Callsign | SWR9Q |
|---|---|
| Flight time | 0h 52m |
| Altitude | FL300 |
| Route | VEBI4W VEBIT T10 TORPA EDOPI GIVOR SORAL IBERA DIK N853 ARCKY T853 NVO T857 BIKMU BIKM1A |
| Aircraft | A321/M-SDE3FGHIRWY/LB1 |
Departure
| Time | 2026-05-04 08:19 |
|---|---|
| Airport | Zürich Airport (LSZH) |
Arrival
| Time | 2026-05-04 09:11 |
|---|---|
| Airport | Düsseldorf Airport (EDDL) |
| Time | Latitude | Longitude | Altitude | Speed | Heading |
|---|---|---|---|---|---|
| 2026-05-04 07:38 | 47.45340 | 8.55753 | 1407 ft | 0 kts | 6° |
| 2026-05-04 08:10 | 47.45262 | 8.55767 | 1412 ft | 4 kts | 276° |
| 2026-05-04 08:11 | 47.45260 | 8.55792 | 1407 ft | 0 kts | 276° |
| 2026-05-04 08:13 | 47.45266 | 8.55715 | 1410 ft | 15 kts | 276° |
| 2026-05-04 08:13 | 47.45298 | 8.55570 | 1410 ft | 15 kts | 317° |
| 2026-05-04 08:13 | 47.45385 | 8.55503 | 1413 ft | 14 kts | 336° |
| 2026-05-04 08:14 | 47.45478 | 8.55442 | 1409 ft | 15 kts | 335° |
| 2026-05-04 08:14 | 47.45574 | 8.55374 | 1403 ft | 16 kts | 334° |
| 2026-05-04 08:14 | 47.45661 | 8.55386 | 1400 ft | 12 kts | 69° |
| 2026-05-04 08:16 | 47.45570 | 8.56833 | 1420 ft | 17 kts | 95° |
| 2026-05-04 08:16 | 47.45578 | 8.56986 | 1422 ft | 13 kts | 50° |
| 2026-05-04 08:16 | 47.45643 | 8.57011 | 1425 ft | 9 kts | 331° |
| 2026-05-04 08:17 | 47.45667 | 8.56935 | 1424 ft | 8 kts | 279° |
| 2026-05-04 08:17 | 47.45672 | 8.56873 | 1422 ft | 0 kts | 276° |
| 2026-05-04 08:17 | 47.45673 | 8.56865 | 1422 ft | 5 kts | 276° |
| 2026-05-04 08:19 | 47.45890 | 8.47208 | 3554 ft | 191 kts | 229° |
| 2026-05-04 08:19 | 47.44763 | 8.45985 | 3715 ft | 213 kts | 214° |
| 2026-05-04 08:20 | 47.43640 | 8.44425 | 3858 ft | 233 kts | 231° |
| 2026-05-04 08:20 | 47.42616 | 8.42436 | 4103 ft | 252 kts | 235° |
| 2026-05-04 08:20 | 47.41601 | 8.40279 | 4536 ft | 265 kts | 236° |
| 2026-05-04 08:20 | 47.40531 | 8.37991 | 4925 ft | 277 kts | 236° |
| 2026-05-04 08:21 | 47.39424 | 8.35664 | 5086 ft | 280 kts | 234° |
| 2026-05-04 08:21 | 47.38325 | 8.33282 | 5874 ft | 282 kts | 236° |
| 2026-05-04 08:21 | 47.37317 | 8.30779 | 6640 ft | 286 kts | 241° |
| 2026-05-04 08:21 | 47.36439 | 8.28225 | 7392 ft | 288 kts | 243° |
| 2026-05-04 08:22 | 47.35574 | 8.25571 | 8211 ft | 287 kts | 242° |
| 2026-05-04 08:22 | 47.34710 | 8.22922 | 9052 ft | 287 kts | 243° |
| 2026-05-04 08:24 | 47.43910 | 8.06509 | 11936 ft | 386 kts | 326° |
| 2026-05-04 08:24 | 47.46198 | 8.04405 | 12558 ft | 390 kts | 325° |
| 2026-05-04 08:24 | 47.48498 | 8.02272 | 13180 ft | 392 kts | 325° |
| 2026-05-04 08:24 | 47.50812 | 8.00110 | 13809 ft | 395 kts | 324° |
| 2026-05-04 08:25 | 47.53138 | 7.97925 | 14345 ft | 398 kts | 324° |
| 2026-05-04 08:25 | 47.55482 | 7.95719 | 14850 ft | 402 kts | 324° |
| 2026-05-04 08:25 | 47.57845 | 7.93490 | 15365 ft | 405 kts | 324° |
| 2026-05-04 08:25 | 47.60226 | 7.91237 | 15875 ft | 409 kts | 324° |
| 2026-05-04 08:26 | 47.62628 | 7.88964 | 16351 ft | 412 kts | 324° |
| 2026-05-04 08:27 | 47.79957 | 7.72580 | 19647 ft | 432 kts | 324° |
| 2026-05-04 08:28 | 47.82497 | 7.70170 | 20078 ft | 435 kts | 324° |
| 2026-05-04 08:28 | 47.85051 | 7.67745 | 20515 ft | 438 kts | 324° |
| 2026-05-04 08:28 | 47.87620 | 7.65300 | 20937 ft | 441 kts | 324° |
| 2026-05-04 08:28 | 47.90205 | 7.62832 | 21334 ft | 443 kts | 324° |
| 2026-05-04 08:29 | 47.92802 | 7.60351 | 21733 ft | 446 kts | 324° |
| 2026-05-04 08:29 | 47.95414 | 7.57847 | 22129 ft | 449 kts | 324° |
| 2026-05-04 08:29 | 47.98040 | 7.55323 | 22522 ft | 451 kts | 324° |
| 2026-05-04 08:31 | 48.16848 | 7.37229 | 24972 ft | 468 kts | 324° |
| 2026-05-04 08:33 | 48.36190 | 7.18451 | 27147 ft | 480 kts | 323° |
| 2026-05-04 08:33 | 48.38991 | 7.15723 | 27477 ft | 481 kts | 323° |
| 2026-05-04 08:35 | 48.58379 | 6.96731 | 30031 ft | 473 kts | 323° |
| 2026-05-04 08:35 | 48.61126 | 6.94024 | 30032 ft | 472 kts | 323° |
| 2026-05-04 08:35 | 48.66613 | 6.88596 | 30029 ft | 472 kts | 322° |
| 2026-05-04 08:37 | 48.85820 | 6.69488 | 30033 ft | 474 kts | 322° |
| 2026-05-04 08:38 | 48.91317 | 6.63992 | 30033 ft | 474 kts | 322° |
| 2026-05-04 08:38 | 48.96815 | 6.58470 | 30036 ft | 475 kts | 322° |
| 2026-05-04 08:40 | 49.17001 | 6.41458 | 30035 ft | 487 kts | 341° |
| 2026-05-04 08:40 | 49.20271 | 6.40132 | 30030 ft | 487 kts | 341° |
| 2026-05-04 08:41 | 49.26798 | 6.37456 | 30036 ft | 487 kts | 341° |
| 2026-05-04 08:41 | 49.33323 | 6.34762 | 30031 ft | 486 kts | 340° |
| 2026-05-04 08:42 | 49.39838 | 6.32069 | 30034 ft | 486 kts | 340° |
| 2026-05-04 08:42 | 49.46346 | 6.29364 | 30031 ft | 485 kts | 340° |
| 2026-05-04 08:43 | 49.52844 | 6.26665 | 30032 ft | 485 kts | 340° |
| 2026-05-04 08:43 | 49.59347 | 6.24003 | 30034 ft | 484 kts | 340° |
| 2026-05-04 08:44 | 49.65848 | 6.21349 | 30036 ft | 484 kts | 340° |
| 2026-05-04 08:46 | 49.92201 | 6.12993 | 30012 ft | 495 kts | 356° |
| 2026-05-04 08:46 | 49.99072 | 6.13049 | 30016 ft | 495 kts | 356° |
| 2026-05-04 08:47 | 50.05940 | 6.13088 | 30021 ft | 494 kts | 356° |
| 2026-05-04 08:47 | 50.12807 | 6.13115 | 30017 ft | 494 kts | 356° |
| 2026-05-04 08:48 | 50.19668 | 6.13157 | 30013 ft | 494 kts | 356° |
| 2026-05-04 08:48 | 50.26519 | 6.13555 | 29997 ft | 498 kts | 5° |
| 2026-05-04 08:49 | 50.33147 | 6.16807 | 29995 ft | 505 kts | 24° |
| 2026-05-04 08:50 | 50.50670 | 6.34532 | 26918 ft | 500 kts | 31° |
| 2026-05-04 08:50 | 50.53622 | 6.37400 | 26409 ft | 500 kts | 30° |
| 2026-05-04 08:51 | 50.56616 | 6.40157 | 25906 ft | 500 kts | 28° |
| 2026-05-04 08:51 | 50.59640 | 6.42851 | 25413 ft | 501 kts | 28° |
| 2026-05-04 08:51 | 50.62675 | 6.45537 | 24929 ft | 502 kts | 28° |
| 2026-05-04 08:51 | 50.65705 | 6.48249 | 24458 ft | 502 kts | 29° |
| 2026-05-04 08:52 | 50.68722 | 6.50994 | 23986 ft | 501 kts | 30° |
| 2026-05-04 08:52 | 50.71717 | 6.53759 | 23508 ft | 498 kts | 30° |
| 2026-05-04 08:52 | 50.74683 | 6.56524 | 22964 ft | 494 kts | 30° |
| 2026-05-04 08:52 | 50.77620 | 6.59265 | 22431 ft | 489 kts | 29° |
| 2026-05-04 08:53 | 50.80708 | 6.61352 | 21893 ft | 481 kts | 13° |
| 2026-05-04 08:54 | 51.02612 | 6.64893 | 20001 ft | 460 kts | 3° |
| 2026-05-04 08:55 | 51.05795 | 6.65357 | 20001 ft | 460 kts | 3° |
| 2026-05-04 08:55 | 51.08975 | 6.65824 | 19803 ft | 460 kts | 3° |
| 2026-05-04 08:55 | 51.12138 | 6.66288 | 19438 ft | 456 kts | 3° |
| 2026-05-04 08:55 | 51.15274 | 6.66744 | 19079 ft | 452 kts | 3° |
| 2026-05-04 08:57 | 51.36262 | 6.69808 | 15910 ft | 388 kts | 3° |
| 2026-05-04 09:01 | 51.60361 | 7.01837 | 9411 ft | 297 kts | 53° |
| 2026-05-04 09:01 | 51.61563 | 7.04534 | 8989 ft | 297 kts | 53° |
| 2026-05-04 09:01 | 51.62763 | 7.07222 | 8573 ft | 297 kts | 53° |
| 2026-05-04 09:01 | 51.63961 | 7.09920 | 8159 ft | 296 kts | 57° |
| 2026-05-04 09:02 | 51.64717 | 7.12962 | 7744 ft | 294 kts | 83° |
| 2026-05-04 09:02 | 51.64583 | 7.16162 | 7347 ft | 282 kts | 110° |
| 2026-05-04 09:02 | 51.63626 | 7.18728 | 7014 ft | 259 kts | 140° |
| 2026-05-04 09:02 | 51.62129 | 7.20112 | 6731 ft | 247 kts | 167° |
| 2026-05-04 09:03 | 51.60468 | 7.20672 | 6459 ft | 243 kts | 173° |
| 2026-05-04 09:03 | 51.58806 | 7.21093 | 6119 ft | 243 kts | 173° |
| 2026-05-04 09:03 | 51.57124 | 7.21492 | 5685 ft | 245 kts | 173° |
| 2026-05-04 09:03 | 51.55487 | 7.21878 | 5412 ft | 236 kts | 173° |
| 2026-05-04 09:04 | 51.53860 | 7.22255 | 5029 ft | 237 kts | 173° |
| 2026-05-04 09:04 | 51.52280 | 7.22485 | 4991 ft | 223 kts | 185° |
| 2026-05-04 09:04 | 51.50777 | 7.22054 | 4999 ft | 219 kts | 202° |
| 2026-05-04 09:04 | 51.49509 | 7.20761 | 5003 ft | 218 kts | 226° |
| 2026-05-04 09:05 | 51.48570 | 7.18863 | 5010 ft | 218 kts | 233° |
| 2026-05-04 09:05 | 51.47666 | 7.16914 | 5007 ft | 218 kts | 233° |
| 2026-05-04 09:05 | 51.46758 | 7.14970 | 5008 ft | 218 kts | 233° |
| 2026-05-04 09:05 | 51.45852 | 7.13037 | 5027 ft | 217 kts | 233° |
| 2026-05-04 09:06 | 51.44945 | 7.11105 | 5015 ft | 218 kts | 233° |
| 2026-05-04 09:07 | 51.38648 | 6.97736 | 3167 ft | 213 kts | 232° |
| 2026-05-04 09:08 | 51.37757 | 6.95851 | 2873 ft | 212 kts | 232° |
| 2026-05-04 09:08 | 51.36894 | 6.94023 | 2608 ft | 197 kts | 232° |
| 2026-05-04 09:08 | 51.36107 | 6.92359 | 2348 ft | 178 kts | 231° |
| 2026-05-04 09:08 | 51.35392 | 6.90848 | 2107 ft | 165 kts | 232° |
| 2026-05-04 09:09 | 51.34710 | 6.89409 | 1893 ft | 161 kts | 232° |
| 2026-05-04 09:09 | 51.34043 | 6.88001 | 1689 ft | 158 kts | 232° |
| 2026-05-04 09:09 | 51.33379 | 6.86601 | 1467 ft | 159 kts | 232° |
| 2026-05-04 09:09 | 51.32729 | 6.85232 | 1265 ft | 149 kts | 232° |
| 2026-05-04 09:10 | 51.32116 | 6.83940 | 1057 ft | 145 kts | 230° |
| 2026-05-04 09:10 | 51.31512 | 6.82668 | 848 ft | 143 kts | 231° |
| 2026-05-04 09:10 | 51.30915 | 6.81411 | 674 ft | 141 kts | 232° |
| 2026-05-04 09:10 | 51.30324 | 6.80168 | 488 ft | 142 kts | 232° |
| 2026-05-04 09:11 | 51.29732 | 6.78923 | 304 ft | 140 kts | 233° |
| 2026-05-04 09:11 | 51.29145 | 6.77690 | 145 ft | 137 kts | 232° |
| 2026-05-04 09:11 | 51.28642 | 6.76631 | 128 ft | 94 kts | 233° |
| 2026-05-04 09:11 | 51.28368 | 6.76069 | 128 ft | 13 kts | 216° |
| 2026-05-04 09:12 | 51.28340 | 6.76056 | 128 ft | 1 kts | 201° |
| 2026-05-04 09:12 | 51.28317 | 6.76043 | 126 ft | 0 kts | 199° |
| 2026-05-04 09:14 | 51.28157 | 6.76293 | 126 ft | 14 kts | 129° |
| 2026-05-04 09:14 | 51.28132 | 6.76342 | 128 ft | 4 kts | 129° |
| 2026-05-04 09:14 | 51.28102 | 6.76382 | 129 ft | 0 kts | 158° |
| 2026-05-04 09:14 | 51.28065 | 6.76409 | 129 ft | 3 kts | 149° |
| 2026-05-04 09:15 | 51.28062 | 6.76412 | 129 ft | 5 kts | 149° |
| 2026-05-04 09:15 | 51.28042 | 6.76434 | 127 ft | 0 kts | 143° |
| 2026-05-04 09:15 | 51.28029 | 6.76528 | 126 ft | 0 kts | 90° |